Terminal Aerodrome Forecast
Issued by NWS Sioux Falls, SD

Home | Current Version | Previous Version | Graphics & Text | Print | Product List | Glossary Off
Versions: 1 2 3 4 5 6 7 8 9 10 11 12

000
FTUS43 KFSD 181100
TAFFSD
TAF
KFSD 181120Z 1812/1912 16004KT 4SM BR SKC
     FM181300 20008KT P6SM SCT030
     FM182200 25012G19KT P6SM BKN050
     FM190100 30007KT P6SM SCT100=

USA.gov is the U.S. government's official web portal to all federal, state and local government web resources and services.